Time;durP1;ratioP1;P1;durP2;ratioP2;P2;SDS_P1;SDS_P2;PMS_P1;PMS_P2;Temp;Humidity;BMP_temperature;BMP_pressure;BME280_temperature;BME280_humidity;BME280_pressure;Samples;Min_cycle;Max_cycle;Signal;HPM_P1;HPM_P2
2023/07/09 00:00:41;;;;;;;6.22;5.47;;;23.60;69.90;;;;;;5070172;28;20439;-67
2023/07/09 00:03:11;;;;;;;6.40;5.30;;;23.60;68.90;;;;;;5070024;28;20754;-67
2023/07/09 00:05:38;;;;;;;6.77;5.47;;;23.50;68.80;;;;;;5070307;28;20415;-68
2023/07/09 00:08:05;;;;;;;5.90;5.20;;;23.50;69.80;;;;;;5069046;28;20515;-69
2023/07/09 00:10:34;;;;;;;7.93;5.00;;;23.50;69.70;;;;;;5059338;28;20443;-69
2023/07/09 00:13:00;;;;;;;5.88;5.28;;;23.50;69.20;;;;;;5062899;28;20485;-69
2023/07/09 00:15:28;;;;;;;5.90;5.30;;;23.40;69.80;;;;;;5069921;28;20418;-68
2023/07/09 00:17:55;;;;;;;5.90;5.05;;;23.40;69.80;;;;;;5076668;28;20415;-68
2023/07/09 00:20:22;;;;;;;6.28;5.68;;;23.40;70.00;;;;;;5081450;28;20433;-69
2023/07/09 00:22:51;;;;;;;6.07;5.47;;;23.40;71.00;;;;;;5072778;28;20423;-68
2023/07/09 00:25:19;;;;;;;7.70;5.90;;;23.30;70.60;;;;;;5069682;28;20435;-67
2023/07/09 00:27:48;;;;;;;6.13;5.53;;;23.30;70.90;;;;;;5069886;28;20425;-69
2023/07/09 00:30:17;;;;;;;6.05;5.35;;;23.30;71.00;;;;;;5068925;28;20419;-69
2023/07/09 00:32:45;;;;;;;6.00;5.40;;;23.30;71.40;;;;;;5070101;28;20454;-68
2023/07/09 00:35:15;;;;;;;6.63;5.90;;;23.30;71.00;;;;;;5070035;28;20429;-69
2023/07/09 00:37:42;;;;;;;6.13;5.53;;;23.30;72.10;;;;;;5059836;28;20459;-69
2023/07/09 00:40:16;;;;;;;6.20;5.55;;;23.30;71.90;;;;;;5068711;28;20435;-67
2023/07/09 00:42:46;;;;;;;8.07;5.93;;;23.20;72.00;;;;;;5069860;28;20419;-68
2023/07/09 00:45:19;;;;;;;5.72;5.20;;;23.20;71.50;;;;;;5069637;28;20446;-69
2023/07/09 00:47:52;;;;;;;6.80;6.10;;;23.20;72.60;;;;;;5069837;28;20438;-68
2023/07/09 00:50:41;;;;;;;6.25;5.40;;;23.20;72.20;;;;;;5060037;28;20512;-69
2023/07/09 00:53:17;;;;;;;5.85;5.25;;;23.10;72.30;;;;;;5057533;28;20486;-70
2023/07/09 00:55:48;;;;;;;5.97;5.38;;;23.20;72.80;;;;;;5068067;28;20452;-69
2023/07/09 00:58:16;;;;;;;6.13;5.53;;;23.10;73.10;;;;;;5069438;28;20419;-69
2023/07/09 01:00:47;;;;;;;6.40;5.80;;;23.10;73.10;;;;;;5068975;28;20443;-67
2023/07/09 01:03:22;;;;;;;7.07;5.85;;;23.10;74.10;;;;;;5068466;28;20426;-66
2023/07/09 01:05:51;;;;;;;6.07;5.47;;;23.10;73.60;;;;;;5061044;28;20526;-69
2023/07/09 01:08:19;;;;;;;6.35;5.75;;;23.00;73.40;;;;;;5061572;28;20440;-69
2023/07/09 01:10:46;;;;;;;6.95;6.25;;;23.00;73.20;;;;;;5067553;28;20439;-69
2023/07/09 01:13:13;;;;;;;6.50;5.90;;;23.00;74.70;;;;;;5069555;28;20431;-70
2023/07/09 01:15:40;;;;;;;5.85;5.35;;;22.90;74.80;;;;;;5069165;28;20435;-69
2023/07/09 01:18:08;;;;;;;6.32;5.72;;;22.90;75.30;;;;;;5069675;28;20411;-68
2023/07/09 01:20:36;;;;;;;6.53;5.90;;;22.90;75.90;;;;;;5066937;28;20798;-69
2023/07/09 01:23:05;;;;;;;6.17;5.60;;;22.90;76.20;;;;;;5059522;28;20574;-70
2023/07/09 01:25:33;;;;;;;6.90;6.20;;;22.90;76.30;;;;;;5059924;28;20511;-68
2023/07/09 01:27:59;;;;;;;6.55;5.95;;;22.90;75.00;;;;;;5069223;28;20837;-69
2023/07/09 01:30:31;;;;;;;6.15;5.40;;;22.80;73.80;;;;;;5068449;28;20880;-67
2023/07/09 01:32:59;;;;;;;6.47;5.53;;;22.80;74.30;;;;;;5069035;28;20426;-67
2023/07/09 01:35:28;;;;;;;6.20;5.60;;;22.80;74.50;;;;;;5069236;28;20418;-69
2023/07/09 01:37:55;;;;;;;6.20;5.60;;;22.70;75.00;;;;;;5064665;28;20866;-69
2023/07/09 01:40:27;;;;;;;6.40;5.80;;;22.70;74.70;;;;;;5062963;28;20438;-69
2023/07/09 01:42:55;;;;;;;6.20;5.60;;;22.60;75.70;;;;;;5069048;28;20415;-68
2023/07/09 01:45:22;;;;;;;9.52;5.80;;;22.70;76.30;;;;;;5068799;28;20416;-69
2023/07/09 01:47:50;;;;;;;6.20;5.60;;;22.60;76.60;;;;;;5069331;28;20411;-70
2023/07/09 01:50:18;;;;;;;7.00;5.40;;;22.60;76.50;;;;;;5068571;28;20408;-68
2023/07/09 01:52:46;;;;;;;6.40;5.80;;;22.60;76.70;;;;;;5068245;28;20450;-69
2023/07/09 01:55:16;;;;;;;6.38;5.78;;;22.60;77.30;;;;;;5058541;28;20783;-69
2023/07/09 01:57:45;;;;;;;6.27;5.63;;;22.60;76.50;;;;;;5060401;28;20420;-70
2023/07/09 02:00:14;;;;;;;6.72;5.63;;;22.50;76.60;;;;;;5068606;28;20614;-69
2023/07/09 02:02:43;;;;;;;7.18;5.65;;;22.50;78.00;;;;;;5068960;28;20511;-69
2023/07/09 02:05:12;;;;;;;6.20;5.60;;;22.50;77.70;;;;;;5076581;28;20468;-68
2023/07/09 02:07:39;;;;;;;8.25;5.82;;;22.50;78.10;;;;;;5065975;28;20441;-69
2023/07/09 02:10:07;;;;;;;6.10;5.50;;;22.40;77.70;;;;;;5055648;28;20621;-68
2023/07/09 02:12:34;;;;;;;5.90;5.30;;;22.40;78.70;;;;;;5066059;28;20880;-68
2023/07/09 02:15:02;;;;;;;6.25;5.65;;;22.40;78.50;;;;;;5068630;28;20423;-68
2023/07/09 02:17:28;;;;;;;6.00;5.37;;;22.40;79.70;;;;;;5069024;28;20411;-69
2023/07/09 02:19:55;;;;;;;6.82;5.78;;;22.40;79.60;;;;;;5067915;28;20940;-68
2023/07/09 02:22:22;;;;;;;7.70;5.88;;;22.40;79.50;;;;;;5067834;28;20432;-69
2023/07/09 02:24:49;;;;;;;6.63;5.95;;;22.40;79.80;;;;;;5060655;28;20426;-68
2023/07/09 02:27:18;;;;;;;7.00;5.70;;;22.30;79.80;;;;;;5072688;28;20421;-69
2023/07/09 02:29:45;;;;;;;8.38;5.68;;;22.30;79.30;;;;;;5071629;28;20406;-69
2023/07/09 02:32:17;;;;;;;5.80;5.20;;;22.30;79.80;;;;;;5072489;28;20418;-68
2023/07/09 02:34:48;;;;;;;6.00;5.40;;;22.30;79.30;;;;;;5072237;28;20496;-70
2023/07/09 02:37:16;;;;;;;5.80;5.20;;;22.30;79.60;;;;;;5065008;28;20433;-70
2023/07/09 02:39:43;;;;;;;6.60;5.90;;;22.20;79.00;;;;;;5060451;28;20518;-68
2023/07/09 02:42:11;;;;;;;6.23;5.60;;;22.20;78.90;;;;;;5071960;28;20412;-69
2023/07/09 02:44:37;;;;;;;5.93;5.10;;;22.20;79.30;;;;;;5072095;28;20451;-69
2023/07/09 02:47:05;;;;;;;6.85;5.80;;;22.20;79.60;;;;;;5072626;28;20427;-69
2023/07/09 02:49:33;;;;;;;6.32;5.72;;;22.20;79.90;;;;;;5071745;28;20407;-67
2023/07/09 02:52:00;;;;;;;6.43;5.20;;;22.20;79.50;;;;;;5071472;28;20431;-69
2023/07/09 02:54:27;;;;;;;6.40;5.80;;;22.10;79.10;;;;;;5054678;28;20424;-69
2023/07/09 02:56:54;;;;;;;6.00;5.40;;;22.10;79.30;;;;;;5071781;28;20412;-69
2023/07/09 02:59:21;;;;;;;7.28;5.22;;;22.10;78.70;;;;;;5071135;28;20427;-69
2023/07/09 03:01:48;;;;;;;6.28;5.68;;;22.10;79.70;;;;;;5072064;28;20505;-69
2023/07/09 03:04:15;;;;;;;7.45;5.32;;;22.00;79.30;;;;;;5071551;28;20846;-68
2023/07/09 03:06:44;;;;;;;6.68;5.88;;;22.00;79.00;;;;;;5069188;28;20435;-68
2023/07/09 03:09:11;;;;;;;5.97;5.20;;;22.00;79.40;;;;;;5064127;28;20427;-69
2023/07/09 03:11:38;;;;;;;6.38;5.10;;;22.00;79.40;;;;;;5071686;28;20801;-67
2023/07/09 03:14:05;;;;;;;6.50;5.33;;;21.90;79.50;;;;;;5071462;28;20415;-69
2023/07/09 03:16:33;;;;;;;5.70;5.13;;;21.90;80.10;;;;;;5071803;28;20457;-69
2023/07/09 03:19:00;;;;;;;5.80;5.20;;;21.90;80.60;;;;;;5070640;28;20414;-69
2023/07/09 03:21:28;;;;;;;6.10;5.50;;;21.90;80.00;;;;;;5070510;28;20407;-69
2023/07/09 03:23:58;;;;;;;6.47;5.80;;;21.90;80.50;;;;;;5062432;28;20416;-67
2023/07/09 03:26:26;;;;;;;7.95;5.30;;;21.90;80.40;;;;;;5071200;28;20411;-67
2023/07/09 03:28:53;;;;;;;6.20;5.60;;;21.90;81.20;;;;;;5070835;28;20885;-68
2023/07/09 03:31:20;;;;;;;6.65;5.15;;;21.80;80.20;;;;;;5071379;28;20473;-70
2023/07/09 03:33:48;;;;;;;6.70;5.30;;;21.80;81.00;;;;;;5071338;28;20411;-67
2023/07/09 03:36:15;;;;;;;6.20;5.60;;;21.80;80.70;;;;;;5070105;28;20435;-70
2023/07/09 03:38:42;;;;;;;5.93;5.33;;;21.80;80.90;;;;;;5061684;28;20427;-70
2023/07/09 03:41:10;;;;;;;6.00;5.40;;;21.80;80.20;;;;;;5070234;28;20479;-69
2023/07/09 03:43:37;;;;;;;5.88;5.35;;;21.70;80.50;;;;;;5070789;28;20419;-69
2023/07/09 03:46:04;;;;;;;5.83;5.13;;;21.70;80.60;;;;;;5070227;28;20940;-69
2023/07/09 03:48:30;;;;;;;6.47;5.80;;;21.70;80.40;;;;;;5070810;28;20502;-67
2023/07/09 03:50:57;;;;;;;6.18;5.10;;;21.60;80.80;;;;;;5069340;28;20411;-68
2023/07/09 03:53:24;;;;;;;6.38;5.70;;;21.70;80.80;;;;;;5069247;28;20411;-67
2023/07/09 03:55:53;;;;;;;6.65;6.05;;;21.60;81.80;;;;;;5080617;28;20818;-69
2023/07/09 03:58:22;;;;;;;7.75;5.60;;;21.70;81.90;;;;;;5071142;28;20740;-68
2023/07/09 04:00:48;;;;;;;5.70;5.10;;;21.60;81.10;;;;;;5069937;28;20454;-68
2023/07/09 04:03:15;;;;;;;6.05;5.30;;;21.70;81.40;;;;;;5070781;28;20483;-69
2023/07/09 04:05:42;;;;;;;5.90;5.30;;;21.60;81.50;;;;;;5067481;28;20434;-69
2023/07/09 04:08:09;;;;;;;6.97;5.30;;;21.60;81.60;;;;;;5070498;28;20915;-67
2023/07/09 04:10:35;;;;;;;6.77;5.50;;;21.60;81.00;;;;;;5080831;28;20404;-68
2023/07/09 04:13:02;;;;;;;6.13;5.10;;;21.60;81.30;;;;;;5081565;28;20882;-68
2023/07/09 04:15:31;;;;;;;6.70;4.80;;;21.60;81.90;;;;;;5082355;28;20491;-67
2023/07/09 04:17:57;;;;;;;5.80;5.30;;;21.60;81.10;;;;;;5080772;28;20419;-68
2023/07/09 04:20:24;;;;;;;7.05;4.80;;;21.60;81.30;;;;;;5073294;28;20419;-69
2023/07/09 04:22:51;;;;;;;6.35;5.32;;;21.60;81.20;;;;;;5061088;28;20423;-69
2023/07/09 04:25:18;;;;;;;5.85;5.07;;;21.50;81.20;;;;;;5069085;28;20419;-68
2023/07/09 04:27:45;;;;;;;6.35;4.50;;;21.50;81.50;;;;;;5070213;28;20423;-67
2023/07/09 04:30:14;;;;;;;7.45;5.88;;;21.50;81.60;;;;;;5069646;28;20416;-67
2023/07/09 04:32:44;;;;;;;6.22;5.15;;;21.50;81.80;;;;;;5070601;28;20706;-69
2023/07/09 04:35:12;;;;;;;6.57;5.50;;;21.50;81.40;;;;;;5068887;28;20455;-67
2023/07/09 04:37:39;;;;;;;7.43;5.95;;;21.50;81.90;;;;;;5058306;28;20441;-67
2023/07/09 04:40:10;;;;;;;7.40;5.50;;;21.50;82.40;;;;;;5068277;28;20424;-68
2023/07/09 04:42:38;;;;;;;6.60;5.20;;;21.40;80.90;;;;;;5069966;28;20459;-70
2023/07/09 04:45:06;;;;;;;5.70;5.10;;;21.40;81.10;;;;;;5069541;28;20439;-68
2023/07/09 04:47:32;;;;;;;5.50;4.43;;;21.40;81.50;;;;;;5069069;28;20408;-69
2023/07/09 04:50:01;;;;;;;5.53;5.00;;;21.40;81.20;;;;;;5069558;28;20865;-69
2023/07/09 04:52:27;;;;;;;5.30;4.80;;;21.40;81.00;;;;;;5058558;28;20437;-69
2023/07/09 04:54:55;;;;;;;6.05;5.03;;;21.40;81.90;;;;;;5068721;28;20415;-69
2023/07/09 04:57:21;;;;;;;6.70;5.07;;;21.40;80.90;;;;;;5069565;28;20415;-70
2023/07/09 04:59:49;;;;;;;5.60;4.82;;;21.40;81.30;;;;;;5068590;28;20926;-67
2023/07/09 05:02:16;;;;;;;5.75;5.07;;;21.40;81.30;;;;;;5069543;28;20469;-66
2023/07/09 05:04:42;;;;;;;6.13;5.53;;;21.40;81.30;;;;;;5066020;28;20439;-69
2023/07/09 05:07:10;;;;;;;6.03;5.38;;;21.50;80.60;;;;;;5094176;22;20427;-70
2023/07/09 05:09:37;;;;;;;5.20;4.70;;;21.50;80.70;;;;;;5059150;28;20417;-70
2023/07/09 05:12:05;;;;;;;6.68;5.10;;;21.50;80.30;;;;;;5049385;28;20417;-69
2023/07/09 05:14:31;;;;;;;6.72;4.90;;;21.50;80.60;;;;;;5049005;28;20500;-69
2023/07/09 05:16:58;;;;;;;5.87;4.90;;;21.50;80.90;;;;;;5049226;28;20501;-70
2023/07/09 05:19:25;;;;;;;6.55;5.30;;;21.50;80.40;;;;;;5053141;28;20456;-70
2023/07/09 05:21:51;;;;;;;6.10;5.10;;;21.60;80.40;;;;;;5052185;28;20428;-69
2023/07/09 05:24:20;;;;;;;5.30;4.80;;;21.60;81.40;;;;;;5069187;28;20429;-70
2023/07/09 05:26:46;;;;;;;5.90;5.15;;;21.60;80.40;;;;;;5068907;28;20878;-69
2023/07/09 05:29:13;;;;;;;5.70;5.10;;;21.70;80.30;;;;;;5061909;28;20433;-70
2023/07/09 05:31:41;;;;;;;5.03;4.63;;;21.70;79.80;;;;;;5057539;28;20415;-70
2023/07/09 05:34:08;;;;;;;6.50;5.10;;;21.70;80.20;;;;;;5049830;28;20442;-70
2023/07/09 05:36:35;;;;;;;6.07;4.68;;;21.80;80.10;;;;;;5057052;28;20422;-70
2023/07/09 05:39:01;;;;;;;5.93;5.00;;;21.80;79.40;;;;;;5048337;28;20413;-70
2023/07/09 05:41:30;;;;;;;5.40;4.90;;;21.80;78.70;;;;;;5048861;28;20947;-70
2023/07/09 05:43:56;;;;;;;5.22;4.72;;;21.80;78.80;;;;;;5053520;28;20433;-70
2023/07/09 05:46:24;;;;;;;5.63;4.80;;;21.90;79.50;;;;;;5064366;28;20928;-70
2023/07/09 05:48:51;;;;;;;5.35;4.82;;;21.90;79.80;;;;;;5067741;28;20418;-70
2023/07/09 05:51:18;;;;;;;5.55;4.70;;;22.00;79.30;;;;;;5060424;28;20787;-70
2023/07/09 05:53:44;;;;;;;5.25;4.75;;;22.00;78.90;;;;;;5050039;28;20884;-70
2023/07/09 05:56:11;;;;;;;5.20;4.70;;;22.10;78.30;;;;;;5048921;28;20421;-70
2023/07/09 05:58:39;;;;;;;4.88;4.38;;;22.10;77.70;;;;;;5058131;28;20429;-70
2023/07/09 06:01:06;;;;;;;5.80;4.90;;;22.20;77.40;;;;;;5067887;28;20438;-70
2023/07/09 06:03:33;;;;;;;5.80;4.80;;;22.30;77.20;;;;;;5073175;28;20415;-70
2023/07/09 06:06:00;;;;;;;5.50;4.80;;;22.30;76.50;;;;;;5063286;28;20427;-70
2023/07/09 06:08:27;;;;;;;6.27;5.00;;;22.40;76.40;;;;;;5056521;28;20413;-70
2023/07/09 06:10:55;;;;;;;6.10;4.87;;;22.40;76.40;;;;;;5051938;28;20900;-70
2023/07/09 06:13:22;;;;;;;5.93;4.43;;;22.50;76.20;;;;;;5060826;28;20416;-70
2023/07/09 06:15:52;;;;;;;6.60;5.00;;;22.60;75.80;;;;;;5071721;28;20446;-70
2023/07/09 06:18:19;;;;;;;5.10;4.60;;;22.60;75.70;;;;;;5072531;28;20900;-70
2023/07/09 06:20:48;;;;;;;4.50;4.10;;;22.70;75.20;;;;;;5062621;28;20951;-70
2023/07/09 06:23:15;;;;;;;5.20;4.70;;;22.70;74.70;;;;;;5058059;28;20425;-70
2023/07/09 06:25:42;;;;;;;5.50;4.35;;;22.80;75.00;;;;;;5052489;28;20488;-70
2023/07/09 06:28:09;;;;;;;5.53;4.90;;;22.90;74.20;;;;;;5053459;28;20433;-70
2023/07/09 06:30:37;;;;;;;5.00;4.50;;;23.00;73.30;;;;;;5060225;28;20425;-69
2023/07/09 06:33:05;;;;;;;5.28;4.70;;;23.00;73.50;;;;;;5051501;28;20471;-70
2023/07/09 06:35:32;;;;;;;6.70;4.80;;;23.10;73.30;;;;;;5053503;28;20433;-71
2023/07/09 06:37:59;;;;;;;4.80;4.40;;;23.20;72.60;;;;;;5059856;28;20417;-70
2023/07/09 06:40:25;;;;;;;5.00;4.35;;;23.30;72.50;;;;;;5051365;28;20435;-69
2023/07/09 06:42:52;;;;;;;6.90;4.90;;;23.40;72.50;;;;;;5052327;28;20420;-71
2023/07/09 06:45:19;;;;;;;5.40;4.72;;;23.40;72.00;;;;;;5054370;28;20440;-71
2023/07/09 06:47:46;;;;;;;5.97;4.20;;;23.50;71.20;;;;;;5062537;28;20411;-70
2023/07/09 06:50:14;;;;;;;5.30;4.43;;;23.60;71.20;;;;;;5056240;28;20436;-70
2023/07/09 06:52:41;;;;;;;5.70;4.78;;;23.60;70.90;;;;;;5069847;28;20412;-68
2023/07/09 06:55:08;;;;;;;4.88;4.38;;;23.80;71.20;;;;;;5070621;28;20462;-69
2023/07/09 06:57:35;;;;;;;6.00;4.45;;;23.80;70.50;;;;;;5055246;28;20418;-71
2023/07/09 07:00:03;;;;;;;4.85;4.35;;;23.90;70.20;;;;;;5065255;28;20425;-70
2023/07/09 07:02:29;;;;;;;6.80;4.60;;;24.00;69.90;;;;;;5059809;28;20437;-70
2023/07/09 07:04:56;;;;;;;7.03;4.72;;;24.10;69.80;;;;;;5058872;28;20440;-70
2023/07/09 07:07:24;;;;;;;7.32;3.97;;;24.20;69.60;;;;;;5059713;28;20426;-69
2023/07/09 07:09:51;;;;;;;6.10;4.32;;;24.20;68.90;;;;;;5051222;28;20409;-69
2023/07/09 07:12:26;;;;;;;4.83;4.40;;;24.30;68.70;;;;;;5058798;28;20432;-68
2023/07/09 07:14:53;;;;;;;4.88;4.30;;;24.50;68.10;;;;;;5059611;28;20413;-69
2023/07/09 07:17:19;;;;;;;5.95;4.70;;;24.60;67.50;;;;;;5051266;28;20516;-69
2023/07/09 07:19:46;;;;;;;6.53;4.40;;;24.70;67.70;;;;;;5056601;28;20917;-70
2023/07/09 07:22:13;;;;;;;5.32;4.10;;;24.80;66.90;;;;;;5059471;28;20896;-70
2023/07/09 07:24:41;;;;;;;4.57;3.80;;;24.90;66.50;;;;;;5051335;28;20831;-69
2023/07/09 07:27:09;;;;;;;4.40;4.00;;;25.00;66.00;;;;;;5055002;28;20423;-69
2023/07/09 07:29:36;;;;;;;5.65;5.15;;;25.20;66.10;;;;;;5060872;28;20432;-70
2023/07/09 07:32:03;;;;;;;6.20;4.60;;;25.40;65.50;;;;;;5050877;28;20420;-69
2023/07/09 07:34:30;;;;;;;4.50;4.00;;;25.50;64.50;;;;;;5054597;28;20430;-70
2023/07/09 07:36:56;;;;;;;4.65;4.25;;;25.60;64.00;;;;;;5059264;28;20792;-70
2023/07/09 07:39:23;;;;;;;6.13;4.10;;;25.80;63.80;;;;;;5050331;28;20413;-69
2023/07/09 07:41:52;;;;;;;4.60;4.20;;;25.90;63.60;;;;;;5051278;28;20433;-70
2023/07/09 07:44:18;;;;;;;4.55;4.10;;;26.00;62.50;;;;;;5052882;28;21029;-70
2023/07/09 07:46:45;;;;;;;4.75;4.20;;;26.10;62.10;;;;;;5058578;28;20413;-70
2023/07/09 07:49:12;;;;;;;4.78;4.07;;;26.20;61.80;;;;;;5050486;28;20414;-70
2023/07/09 07:51:39;;;;;;;4.57;4.18;;;26.40;61.20;;;;;;5060648;28;20419;-70
2023/07/09 07:54:08;;;;;;;5.70;4.07;;;26.50;61.20;;;;;;5050788;28;20447;-70
2023/07/09 07:56:35;;;;;;;4.97;4.43;;;26.60;61.10;;;;;;5050793;28;20413;-69
2023/07/09 07:59:04;;;;;;;5.07;4.20;;;26.70;60.90;;;;;;5056951;28;20440;-70
2023/07/09 08:01:31;;;;;;;5.70;3.90;;;26.90;60.10;;;;;;5058681;28;20541;-70
2023/07/09 08:03:57;;;;;;;5.45;4.00;;;27.10;59.60;;;;;;5070840;28;20423;-69
2023/07/09 08:06:24;;;;;;;5.15;4.30;;;27.20;59.00;;;;;;5062520;28;20439;-69
2023/07/09 08:08:51;;;;;;;4.50;4.10;;;27.40;58.10;;;;;;5058454;28;20539;-69
2023/07/09 08:11:18;;;;;;;4.18;3.88;;;27.50;57.90;;;;;;5050297;28;20513;-69
2023/07/09 08:13:45;;;;;;;4.00;3.70;;;27.70;57.30;;;;;;5050159;28;20424;-69
2023/07/09 08:16:13;;;;;;;4.28;3.88;;;27.90;57.40;;;;;;5053169;28;20460;-69
2023/07/09 08:18:40;;;;;;;5.03;4.07;;;28.10;55.80;;;;;;5053639;28;20432;-69
2023/07/09 08:21:07;;;;;;;4.90;4.00;;;28.30;54.60;;;;;;5056320;28;20429;-70
2023/07/09 08:23:33;;;;;;;5.32;3.95;;;28.40;53.20;;;;;;5057196;28;20908;-69
2023/07/09 08:26:02;;;;;;;4.03;3.63;;;28.50;53.40;;;;;;5049689;28;20417;-71
2023/07/09 08:28:29;;;;;;;4.43;3.85;;;28.60;53.80;;;;;;5051765;28;20554;-69
2023/07/09 08:30:57;;;;;;;4.27;3.87;;;28.80;53.20;;;;;;5060472;28;20434;-69
2023/07/09 08:33:25;;;;;;;4.10;3.80;;;29.00;52.00;;;;;;5053677;28;20872;-70
2023/07/09 08:35:53;;;;;;;4.03;3.63;;;29.20;51.80;;;;;;5058649;28;20463;-70
2023/07/09 08:38:21;;;;;;;4.47;3.63;;;29.40;50.80;;;;;;5054333;28;20442;-70
2023/07/09 08:40:56;;;;;;;3.83;3.53;;;29.60;49.70;;;;;;5049065;28;20927;-70
2023/07/09 08:43:36;;;;;;;3.67;3.37;;;29.80;49.10;;;;;;5058850;28;20434;-70
2023/07/09 08:46:10;;;;;;;4.70;3.60;;;30.10;48.30;;;;;;5057697;28;20405;-70
2023/07/09 08:48:43;;;;;;;5.47;4.07;;;30.40;46.80;;;;;;5049461;28;20424;-71
2023/07/09 08:51:15;;;;;;;3.70;3.40;;;30.40;46.00;;;;;;5059033;28;20428;-71
2023/07/09 08:53:49;;;;;;;3.50;3.20;;;30.50;45.70;;;;;;5051159;28;20413;-70
2023/07/09 08:56:17;;;;;;;5.03;3.80;;;30.80;45.40;;;;;;5049661;28;20425;-70
2023/07/09 08:58:45;;;;;;;3.70;3.40;;;30.90;44.70;;;;;;5054447;28;20930;-70
2023/07/09 09:01:19;;;;;;;5.93;3.90;;;31.00;44.40;;;;;;5056770;28;20429;-70
2023/07/09 09:03:50;;;;;;;4.78;3.60;;;31.20;43.60;;;;;;5058989;28;20832;-70
2023/07/09 09:06:22;;;;;;;4.38;3.45;;;31.20;43.10;;;;;;5059047;28;20463;-70
2023/07/09 09:08:59;;;;;;;3.80;3.50;;;31.20;43.40;;;;;;5057793;28;20902;-70
2023/07/09 09:11:35;;;;;;;3.58;3.28;;;31.30;42.30;;;;;;5049442;28;20417;-70
2023/07/09 09:14:05;;;;;;;4.50;3.50;;;31.40;42.70;;;;;;5049033;28;20416;-70
2023/07/09 09:16:35;;;;;;;5.40;3.90;;;31.40;42.70;;;;;;5049230;28;20429;-70
2023/07/09 09:19:12;;;;;;;4.10;3.70;;;31.50;43.00;;;;;;5048419;28;20454;-70
2023/07/09 09:21:39;;;;;;;4.05;3.65;;;31.60;41.70;;;;;;5056782;28;20436;-70
2023/07/09 09:24:15;;;;;;;4.15;3.75;;;31.70;41.70;;;;;;5048764;28;20429;-70
2023/07/09 09:26:44;;;;;;;4.25;3.50;;;31.80;42.30;;;;;;5049142;28;20479;-70
2023/07/09 09:29:12;;;;;;;4.72;3.40;;;32.00;41.80;;;;;;5048647;28;20475;-71
2023/07/09 09:31:39;;;;;;;3.70;3.40;;;32.20;40.70;;;;;;5049099;28;20436;-70
2023/07/09 09:34:18;;;;;;;3.53;3.22;;;32.40;40.80;;;;;;5051117;28;20464;-70
2023/07/09 09:36:45;;;;;;;3.58;3.28;;;32.60;40.30;;;;;;5057932;28;20471;-71
2023/07/09 09:39:12;;;;;;;3.65;3.30;;;32.60;39.80;;;;;;5056821;28;20414;-70
2023/07/09 09:41:40;;;;;;;4.15;3.75;;;32.70;40.00;;;;;;5048914;28;20425;-71
2023/07/09 09:44:07;;;;;;;3.60;3.30;;;32.80;39.70;;;;;;5048719;28;20463;-70
2023/07/09 09:46:34;;;;;;;3.40;3.10;;;33.00;39.60;;;;;;5049280;28;20452;-70
2023/07/09 09:49:03;;;;;;;3.78;3.33;;;33.20;39.50;;;;;;5052112;28;20496;-70
2023/07/09 09:51:31;;;;;;;3.60;3.30;;;33.30;38.90;;;;;;5058112;28;20427;-70
2023/07/09 09:54:00;;;;;;;3.60;3.30;;;33.40;38.90;;;;;;5048980;28;20417;-71
2023/07/09 09:56:29;;;;;;;3.80;3.40;;;33.50;38.90;;;;;;5051018;28;20417;-71
2023/07/09 09:58:57;;;;;;;3.50;3.20;;;33.60;39.00;;;;;;5048538;28;20424;-71
2023/07/09 10:01:29;;;;;;;3.70;3.40;;;33.70;38.80;;;;;;5048950;28;20436;-71
2023/07/09 10:03:58;;;;;;;3.60;3.30;;;33.70;38.00;;;;;;5057662;28;20439;-71
2023/07/09 10:06:34;;;;;;;3.85;3.28;;;33.90;38.20;;;;;;5060219;28;20912;-71
2023/07/09 10:09:06;;;;;;;3.50;3.20;;;34.00;37.80;;;;;;5048132;28;20497;-71
2023/07/09 10:11:46;;;;;;;3.45;3.15;;;34.10;37.40;;;;;;5048659;28;20409;-71
2023/07/09 10:14:29;;;;;;;3.50;3.20;;;34.30;37.30;;;;;;5048191;28;20860;-70
2023/07/09 10:17:02;;;;;;;3.90;3.28;;;34.60;36.90;;;;;;5048475;28;20425;-71
2023/07/09 10:19:37;;;;;;;3.85;3.33;;;34.80;35.80;;;;;;5052719;28;20437;-71
2023/07/09 10:22:11;;;;;;;3.75;3.45;;;35.00;36.90;;;;;;5061414;28;20431;-71
2023/07/09 10:24:48;;;;;;;4.20;3.20;;;35.10;35.80;;;;;;5068341;28;20404;-71
2023/07/09 10:27:22;;;;;;;3.58;3.28;;;35.20;34.60;;;;;;5067741;28;20419;-71
2023/07/09 10:30:14;;;;;;;3.22;2.92;;;35.30;34.50;;;;;;5050484;28;20417;-71
2023/07/09 10:32:54;;;;;;;3.10;2.90;;;35.50;33.70;;;;;;5068662;28;20896;-71
2023/07/09 10:35:26;;;;;;;3.30;3.00;;;35.70;33.90;;;;;;5051812;28;20440;-71
2023/07/09 10:38:20;;;;;;;3.25;3.00;;;35.80;34.10;;;;;;5068224;28;20419;-71
2023/07/09 10:40:51;;;;;;;3.30;3.00;;;35.90;33.70;;;;;;5068125;28;20415;-71
2023/07/09 10:43:21;;;;;;;4.30;3.10;;;36.00;32.70;;;;;;5058375;28;21185;-71
2023/07/09 10:45:54;;;;;;;3.50;3.20;;;36.10;33.40;;;;;;5058805;28;20445;-71
2023/07/09 10:48:32;;;;;;;3.20;2.90;;;36.20;32.10;;;;;;5058954;28;20432;-71
2023/07/09 10:51:02;;;;;;;3.10;2.80;;;36.20;32.10;;;;;;5059514;28;20425;-71
2023/07/09 10:53:36;;;;;;;3.10;2.60;;;36.40;32.60;;;;;;5062571;28;20432;-71
2023/07/09 10:56:12;;;;;;;3.50;3.20;;;36.50;32.60;;;;;;5059932;28;20509;-71
2023/07/09 10:58:46;;;;;;;3.50;3.20;;;36.80;32.90;;;;;;5061214;28;20430;-71
2023/07/09 11:01:14;;;;;;;3.30;2.70;;;37.00;32.10;;;;;;5061559;28;20442;-71
2023/07/09 11:03:45;;;;;;;3.03;2.60;;;37.20;30.50;;;;;;5055002;28;20481;-71
2023/07/09 11:08:48;;;;;;;3.25;2.95;;;37.30;30.00;;;;;;5067159;28;20495;-68
2023/07/09 11:11:23;;;;;;;3.30;3.00;;;37.50;30.40;;;;;;5064261;28;20427;-68
2023/07/09 11:13:54;;;;;;;3.70;2.70;;;37.60;29.40;;;;;;5063707;28;20423;-70
2023/07/09 11:16:27;;;;;;;2.95;2.63;;;37.70;29.40;;;;;;5064562;28;20857;-68
2023/07/09 11:18:57;;;;;;;3.15;2.58;;;37.70;29.30;;;;;;5069848;28;20454;-68
2023/07/09 11:21:24;;;;;;;2.67;2.47;;;37.70;28.90;;;;;;5070371;28;20403;-67
2023/07/09 11:23:54;;;;;;;3.22;2.70;;;37.80;28.50;;;;;;5070177;28;20506;-69
2023/07/09 11:26:26;;;;;;;3.60;2.60;;;37.80;28.90;;;;;;5070022;28;20458;-68
2023/07/09 11:28:56;;;;;;;3.10;2.60;;;38.00;28.30;;;;;;5068354;28;20432;-68
2023/07/09 11:31:25;;;;;;;5.78;3.00;;;38.10;28.20;;;;;;5069962;28;20418;-68
2023/07/09 11:34:02;;;;;;;3.00;2.70;;;38.10;28.20;;;;;;5069494;28;20777;-67
2023/07/09 11:36:31;;;;;;;3.05;2.80;;;38.20;27.50;;;;;;5069571;28;20485;-68
2023/07/09 11:38:59;;;;;;;2.70;2.50;;;38.10;27.90;;;;;;5069760;28;20415;-68
2023/07/09 11:41:38;;;;;;;3.00;2.80;;;38.00;28.00;;;;;;5069299;28;20430;-68
2023/07/09 11:44:13;;;;;;;3.50;3.20;;;37.90;28.40;;;;;;5062718;28;20495;-68
2023/07/09 11:47:07;;;;;;;3.58;2.40;;;38.00;28.40;;;;;;5069431;28;20411;-68
2023/07/09 11:49:43;;;;;;;2.85;2.30;;;38.10;27.50;;;;;;5059484;28;20418;-68
2023/07/09 11:52:11;;;;;;;3.22;2.45;;;38.10;26.60;;;;;;5069786;28;20420;-68
2023/07/09 11:54:39;;;;;;;3.30;2.17;;;38.20;26.90;;;;;;5069297;28;20467;-68
2023/07/09 11:57:13;;;;;;;2.40;2.20;;;38.30;26.30;;;;;;5068549;28;20438;-68
2023/07/09 11:59:40;;;;;;;2.60;2.40;;;38.40;25.10;;;;;;5068732;28;20430;-68
2023/07/09 12:02:14;;;;;;;2.80;2.50;;;38.20;25.40;;;;;;5068613;28;20936;-68
2023/07/09 12:04:42;;;;;;;2.70;2.50;;;38.10;26.40;;;;;;5069328;28;20415;-68
2023/07/09 12:07:16;;;;;;;2.50;2.30;;;38.10;26.60;;;;;;5069238;28;20422;-68
2023/07/09 12:09:51;;;;;;;2.60;2.40;;;38.10;26.90;;;;;;5068482;28;20928;-68
2023/07/09 12:12:20;;;;;;;2.60;2.10;;;38.10;27.30;;;;;;5068199;28;20555;-68
2023/07/09 12:14:47;;;;;;;2.40;2.10;;;38.20;25.70;;;;;;5068866;28;20443;-68
2023/07/09 12:17:14;;;;;;;2.30;2.10;;;38.10;24.90;;;;;;5068425;28;20522;-68
2023/07/09 12:19:40;;;;;;;3.13;2.53;;;37.80;25.00;;;;;;5068186;28;20411;-69
2023/07/09 12:22:10;;;;;;;2.80;2.25;;;37.50;25.00;;;;;;5068921;28;20420;-69
2023/07/09 12:24:40;;;;;;;3.80;2.80;;;37.50;24.80;;;;;;5069160;28;20408;-68
2023/07/09 12:27:20;;;;;;;2.53;2.33;;;37.60;24.40;;;;;;5065385;28;20438;-68
2023/07/09 12:29:46;;;;;;;2.67;2.40;;;37.40;24.50;;;;;;5068493;28;20424;-68
2023/07/09 12:32:15;;;;;;;2.20;2.00;;;37.30;25.20;;;;;;5068835;28;20901;-69
2023/07/09 12:34:42;;;;;;;3.40;2.50;;;37.10;25.80;;;;;;5068116;28;20458;-68
2023/07/09 12:37:14;;;;;;;3.30;2.50;;;37.00;25.80;;;;;;5068938;28;20867;-67
2023/07/09 12:39:41;;;;;;;3.70;2.40;;;36.80;26.30;;;;;;5068646;28;20411;-67
2023/07/09 12:42:17;;;;;;;2.47;2.28;;;36.50;26.00;;;;;;5065179;28;20435;-68
2023/07/09 12:44:45;;;;;;;2.63;2.30;;;36.30;26.80;;;;;;5067289;28;20416;-69
2023/07/09 12:47:15;;;;;;;3.10;2.40;;;36.20;26.70;;;;;;5068773;28;20502;-69
2023/07/09 12:49:44;;;;;;;3.47;2.22;;;36.10;26.90;;;;;;5067408;28;20880;-69
2023/07/09 12:52:16;;;;;;;3.15;2.70;;;36.20;27.20;;;;;;5068554;28;20510;-68
2023/07/09 12:54:53;;;;;;;2.75;2.50;;;36.30;27.80;;;;;;5068338;28;20490;-68
2023/07/09 12:57:21;;;;;;;3.03;2.40;;;36.30;28.50;;;;;;5067702;28;20443;-68
2023/07/09 12:59:48;;;;;;;2.90;2.60;;;36.30;28.20;;;;;;5062870;28;20436;-67